sensor_id;sensor_type;location;lat;lon;timestamp;P1;durP1;ratioP1;P2;durP2;ratioP2
71104;SDS011;58760;48.716;8.962;2023-09-19T00:00:30;3.97;;;0.82;;
71104;SDS011;58760;48.716;8.962;2023-09-19T00:02:57;1.77;;;0.93;;
71104;SDS011;58760;48.716;8.962;2023-09-19T00:05:27;4.03;;;0.90;;
71104;SDS011;58760;48.716;8.962;2023-09-19T00:07:54;5.60;;;0.90;;
71104;SDS011;58760;48.716;8.962;2023-09-19T00:10:27;3.33;;;0.82;;
71104;SDS011;58760;48.716;8.962;2023-09-19T00:12:56;1.50;;;0.80;;
71104;SDS011;58760;48.716;8.962;2023-09-19T00:15:24;3.65;;;1.00;;
71104;SDS011;58760;48.716;8.962;2023-09-19T00:17:54;2.65;;;1.00;;
71104;SDS011;58760;48.716;8.962;2023-09-19T00:20:20;1.80;;;0.80;;
71104;SDS011;58760;48.716;8.962;2023-09-19T00:22:49;2.40;;;0.95;;
71104;SDS011;58760;48.716;8.962;2023-09-19T00:25:18;3.15;;;0.98;;
71104;SDS011;58760;48.716;8.962;2023-09-19T00:27:45;2.13;;;0.88;;
71104;SDS011;58760;48.716;8.962;2023-09-19T00:30:12;3.88;;;1.02;;
71104;SDS011;58760;48.716;8.962;2023-09-19T00:32:45;2.60;;;1.00;;
71104;SDS011;58760;48.716;8.962;2023-09-19T00:35:12;3.55;;;0.93;;
71104;SDS011;58760;48.716;8.962;2023-09-19T00:37:40;3.03;;;0.90;;
71104;SDS011;58760;48.716;8.962;2023-09-19T00:40:09;2.55;;;0.80;;
71104;SDS011;58760;48.716;8.962;2023-09-19T00:42:40;2.53;;;0.93;;
71104;SDS011;58760;48.716;8.962;2023-09-19T00:45:09;3.67;;;0.90;;
71104;SDS011;58760;48.716;8.962;2023-09-19T00:47:37;2.75;;;0.95;;
71104;SDS011;58760;48.716;8.962;2023-09-19T00:50:04;3.47;;;1.02;;
71104;SDS011;58760;48.716;8.962;2023-09-19T00:52:33;0.98;;;0.65;;
71104;SDS011;58760;48.716;8.962;2023-09-19T00:55:03;2.80;;;0.75;;
71104;SDS011;58760;48.716;8.962;2023-09-19T00:57:30;3.58;;;0.98;;
71104;SDS011;58760;48.716;8.962;2023-09-19T00:59:57;1.95;;;0.90;;
71104;SDS011;58760;48.716;8.962;2023-09-19T01:02:23;2.50;;;0.70;;
71104;SDS011;58760;48.716;8.962;2023-09-19T01:04:49;5.03;;;0.75;;
71104;SDS011;58760;48.716;8.962;2023-09-19T01:07:14;2.05;;;0.90;;
71104;SDS011;58760;48.716;8.962;2023-09-19T01:09:41;1.10;;;0.70;;
71104;SDS011;58760;48.716;8.962;2023-09-19T01:12:07;2.45;;;0.95;;
71104;SDS011;58760;48.716;8.962;2023-09-19T01:14:52;5.32;;;0.98;;
71104;SDS011;58760;48.716;8.962;2023-09-19T01:17:24;1.23;;;0.70;;
71104;SDS011;58760;48.716;8.962;2023-09-19T01:26:07;1.98;;;0.70;;
71104;SDS011;58760;48.716;8.962;2023-09-19T01:28:51;5.53;;;0.85;;
71104;SDS011;58760;48.716;8.962;2023-09-19T01:31:23;1.88;;;0.77;;
71104;SDS011;58760;48.716;8.962;2023-09-19T01:33:54;3.38;;;0.80;;
71104;SDS011;58760;48.716;8.962;2023-09-19T01:36:24;4.28;;;0.90;;
71104;SDS011;58760;48.716;8.962;2023-09-19T01:38:51;1.70;;;0.65;;
71104;SDS011;58760;48.716;8.962;2023-09-19T01:41:20;3.67;;;0.88;;
71104;SDS011;58760;48.716;8.962;2023-09-19T01:43:51;2.55;;;0.80;;
71104;SDS011;58760;48.716;8.962;2023-09-19T01:46:18;4.53;;;0.70;;
71104;SDS011;58760;48.716;8.962;2023-09-19T01:51:37;3.38;;;0.80;;
71104;SDS011;58760;48.716;8.962;2023-09-19T01:54:11;1.95;;;0.80;;
71104;SDS011;58760;48.716;8.962;2023-09-19T01:56:50;1.10;;;0.70;;
71104;SDS011;58760;48.716;8.962;2023-09-19T01:59:28;2.20;;;0.70;;
71104;SDS011;58760;48.716;8.962;2023-09-19T02:02:00;5.80;;;0.88;;
71104;SDS011;58760;48.716;8.962;2023-09-19T02:06:52;4.53;;;0.80;;
71104;SDS011;58760;48.716;8.962;2023-09-19T02:09:18;2.78;;;0.80;;
71104;SDS011;58760;48.716;8.962;2023-09-19T02:11:43;2.00;;;0.70;;
71104;SDS011;58760;48.716;8.962;2023-09-19T02:14:08;2.67;;;0.80;;
71104;SDS011;58760;48.716;8.962;2023-09-19T02:16:34;2.95;;;0.77;;
71104;SDS011;58760;48.716;8.962;2023-09-19T02:19:00;0.82;;;0.60;;
71104;SDS011;58760;48.716;8.962;2023-09-19T02:21:26;1.55;;;0.65;;
71104;SDS011;58760;48.716;8.962;2023-09-19T02:23:54;2.40;;;0.70;;
71104;SDS011;58760;48.716;8.962;2023-09-19T02:26:20;1.35;;;0.70;;
71104;SDS011;58760;48.716;8.962;2023-09-19T02:28:45;1.65;;;0.70;;
71104;SDS011;58760;48.716;8.962;2023-09-19T02:31:11;1.25;;;0.60;;
71104;SDS011;58760;48.716;8.962;2023-09-19T02:33:36;1.90;;;0.70;;
71104;SDS011;58760;48.716;8.962;2023-09-19T02:36:02;7.63;;;1.00;;
71104;SDS011;58760;48.716;8.962;2023-09-19T02:38:29;5.53;;;0.65;;
71104;SDS011;58760;48.716;8.962;2023-09-19T02:40:54;2.15;;;0.77;;
71104;SDS011;58760;48.716;8.962;2023-09-19T02:43:20;3.38;;;0.88;;
71104;SDS011;58760;48.716;8.962;2023-09-19T02:45:46;4.07;;;0.80;;
71104;SDS011;58760;48.716;8.962;2023-09-19T02:48:12;1.67;;;0.70;;
71104;SDS011;58760;48.716;8.962;2023-09-19T02:50:37;3.67;;;0.70;;
71104;SDS011;58760;48.716;8.962;2023-09-19T02:53:04;3.03;;;1.00;;
71104;SDS011;58760;48.716;8.962;2023-09-19T02:55:29;0.70;;;0.70;;
71104;SDS011;58760;48.716;8.962;2023-09-19T02:57:55;1.20;;;0.65;;
71104;SDS011;58760;48.716;8.962;2023-09-19T03:00:20;2.05;;;0.90;;
71104;SDS011;58760;48.716;8.962;2023-09-19T03:02:53;1.02;;;0.65;;
71104;SDS011;58760;48.716;8.962;2023-09-19T03:05:19;1.48;;;0.68;;
71104;SDS011;58760;48.716;8.962;2023-09-19T03:07:46;2.60;;;0.77;;
71104;SDS011;58760;48.716;8.962;2023-09-19T03:10:16;2.58;;;0.90;;
71104;SDS011;58760;48.716;8.962;2023-09-19T03:12:46;3.67;;;0.90;;
71104;SDS011;58760;48.716;8.962;2023-09-19T03:15:11;2.53;;;0.90;;
71104;SDS011;58760;48.716;8.962;2023-09-19T03:17:37;3.58;;;0.80;;
71104;SDS011;58760;48.716;8.962;2023-09-19T03:20:03;2.67;;;1.13;;
71104;SDS011;58760;48.716;8.962;2023-09-19T03:22:33;3.22;;;0.90;;
71104;SDS011;58760;48.716;8.962;2023-09-19T03:24:59;3.63;;;0.90;;
71104;SDS011;58760;48.716;8.962;2023-09-19T03:27:25;2.25;;;0.75;;
71104;SDS011;58760;48.716;8.962;2023-09-19T03:32:18;2.25;;;1.00;;
71104;SDS011;58760;48.716;8.962;2023-09-19T03:34:44;2.55;;;0.90;;
71104;SDS011;58760;48.716;8.962;2023-09-19T03:37:09;2.28;;;0.70;;
71104;SDS011;58760;48.716;8.962;2023-09-19T03:39:35;2.20;;;0.82;;
71104;SDS011;58760;48.716;8.962;2023-09-19T03:42:01;1.65;;;0.88;;
71104;SDS011;58760;48.716;8.962;2023-09-19T03:44:29;2.60;;;1.05;;
71104;SDS011;58760;48.716;8.962;2023-09-19T03:46:55;3.83;;;0.90;;
71104;SDS011;58760;48.716;8.962;2023-09-19T03:49:21;3.75;;;0.90;;
71104;SDS011;58760;48.716;8.962;2023-09-19T03:51:47;3.80;;;0.95;;
71104;SDS011;58760;48.716;8.962;2023-09-19T03:54:12;1.90;;;1.00;;
71104;SDS011;58760;48.716;8.962;2023-09-19T03:56:38;2.72;;;1.13;;
71104;SDS011;58760;48.716;8.962;2023-09-19T03:59:03;4.10;;;0.95;;
71104;SDS011;58760;48.716;8.962;2023-09-19T04:01:29;2.45;;;1.00;;
71104;SDS011;58760;48.716;8.962;2023-09-19T04:03:57;1.83;;;0.75;;
71104;SDS011;58760;48.716;8.962;2023-09-19T04:06:22;5.25;;;1.08;;
71104;SDS011;58760;48.716;8.962;2023-09-19T04:08:48;3.20;;;1.17;;
71104;SDS011;58760;48.716;8.962;2023-09-19T04:11:14;3.78;;;1.55;;
71104;SDS011;58760;48.716;8.962;2023-09-19T04:13:39;4.35;;;1.40;;
71104;SDS011;58760;48.716;8.962;2023-09-19T04:16:05;2.33;;;0.88;;
71104;SDS011;58760;48.716;8.962;2023-09-19T04:18:31;3.28;;;1.05;;
71104;SDS011;58760;48.716;8.962;2023-09-19T04:20:58;2.67;;;1.02;;
71104;SDS011;58760;48.716;8.962;2023-09-19T04:23:24;2.10;;;1.10;;
71104;SDS011;58760;48.716;8.962;2023-09-19T04:25:50;1.83;;;1.00;;
71104;SDS011;58760;48.716;8.962;2023-09-19T04:28:16;2.88;;;1.10;;
71104;SDS011;58760;48.716;8.962;2023-09-19T04:30:41;4.93;;;1.35;;
71104;SDS011;58760;48.716;8.962;2023-09-19T04:33:07;3.80;;;1.05;;
71104;SDS011;58760;48.716;8.962;2023-09-19T04:35:33;3.55;;;1.10;;
71104;SDS011;58760;48.716;8.962;2023-09-19T04:37:59;4.20;;;1.13;;
71104;SDS011;58760;48.716;8.962;2023-09-19T04:40:24;2.65;;;0.90;;
71104;SDS011;58760;48.716;8.962;2023-09-19T04:42:55;3.20;;;1.00;;
71104;SDS011;58760;48.716;8.962;2023-09-19T04:45:25;2.40;;;1.10;;
71104;SDS011;58760;48.716;8.962;2023-09-19T04:47:51;1.55;;;1.00;;
71104;SDS011;58760;48.716;8.962;2023-09-19T04:50:18;4.78;;;1.20;;
71104;SDS011;58760;48.716;8.962;2023-09-19T04:52:44;2.75;;;1.13;;
71104;SDS011;58760;48.716;8.962;2023-09-19T04:57:41;3.33;;;1.10;;
71104;SDS011;58760;48.716;8.962;2023-09-19T05:00:07;2.97;;;1.05;;
71104;SDS011;58760;48.716;8.962;2023-09-19T05:02:37;1.67;;;0.90;;
71104;SDS011;58760;48.716;8.962;2023-09-19T05:05:02;3.20;;;1.10;;
71104;SDS011;58760;48.716;8.962;2023-09-19T05:07:29;4.50;;;1.20;;
71104;SDS011;58760;48.716;8.962;2023-09-19T05:09:55;2.67;;;1.08;;
71104;SDS011;58760;48.716;8.962;2023-09-19T05:12:20;4.32;;;1.30;;
71104;SDS011;58760;48.716;8.962;2023-09-19T05:14:46;3.10;;;1.08;;
71104;SDS011;58760;48.716;8.962;2023-09-19T05:17:11;4.15;;;1.25;;
71104;SDS011;58760;48.716;8.962;2023-09-19T05:19:36;6.68;;;1.23;;
71104;SDS011;58760;48.716;8.962;2023-09-19T05:22:03;3.83;;;1.13;;
71104;SDS011;58760;48.716;8.962;2023-09-19T05:24:29;3.35;;;1.30;;
71104;SDS011;58760;48.716;8.962;2023-09-19T05:26:55;3.25;;;1.10;;
71104;SDS011;58760;48.716;8.962;2023-09-19T05:29:22;3.55;;;1.35;;
71104;SDS011;58760;48.716;8.962;2023-09-19T05:31:48;4.43;;;1.30;;
71104;SDS011;58760;48.716;8.962;2023-09-19T05:34:14;2.80;;;1.30;;
71104;SDS011;58760;48.716;8.962;2023-09-19T05:36:40;4.70;;;1.10;;
71104;SDS011;58760;48.716;8.962;2023-09-19T05:39:06;6.22;;;1.40;;
71104;SDS011;58760;48.716;8.962;2023-09-19T05:41:34;3.95;;;1.13;;
71104;SDS011;58760;48.716;8.962;2023-09-19T05:44:02;3.92;;;1.25;;
71104;SDS011;58760;48.716;8.962;2023-09-19T05:46:28;5.32;;;1.50;;
71104;SDS011;58760;48.716;8.962;2023-09-19T05:48:55;3.28;;;1.13;;
71104;SDS011;58760;48.716;8.962;2023-09-19T05:51:23;2.83;;;1.02;;
71104;SDS011;58760;48.716;8.962;2023-09-19T05:53:50;5.18;;;1.13;;
71104;SDS011;58760;48.716;8.962;2023-09-19T05:56:15;2.38;;;1.02;;
71104;SDS011;58760;48.716;8.962;2023-09-19T05:58:43;3.08;;;1.20;;
71104;SDS011;58760;48.716;8.962;2023-09-19T06:01:09;8.50;;;1.35;;
71104;SDS011;58760;48.716;8.962;2023-09-19T06:03:35;8.45;;;1.10;;
71104;SDS011;58760;48.716;8.962;2023-09-19T06:06:03;2.03;;;1.08;;
71104;SDS011;58760;48.716;8.962;2023-09-19T06:08:32;4.25;;;1.42;;
71104;SDS011;58760;48.716;8.962;2023-09-19T06:10:58;2.28;;;1.08;;
71104;SDS011;58760;48.716;8.962;2023-09-19T06:13:24;2.25;;;1.27;;
71104;SDS011;58760;48.716;8.962;2023-09-19T06:15:51;2.78;;;1.30;;
71104;SDS011;58760;48.716;8.962;2023-09-19T06:18:17;3.83;;;1.30;;
71104;SDS011;58760;48.716;8.962;2023-09-19T06:20:46;2.67;;;1.20;;
71104;SDS011;58760;48.716;8.962;2023-09-19T06:23:13;4.28;;;1.17;;
71104;SDS011;58760;48.716;8.962;2023-09-19T06:25:38;3.05;;;1.35;;
71104;SDS011;58760;48.716;8.962;2023-09-19T06:28:04;1.92;;;1.00;;
71104;SDS011;58760;48.716;8.962;2023-09-19T06:30:30;4.43;;;1.30;;
71104;SDS011;58760;48.716;8.962;2023-09-19T06:32:57;3.75;;;1.13;;
71104;SDS011;58760;48.716;8.962;2023-09-19T06:35:23;3.45;;;1.27;;
71104;SDS011;58760;48.716;8.962;2023-09-19T06:37:51;3.58;;;1.20;;
71104;SDS011;58760;48.716;8.962;2023-09-19T06:40:16;2.53;;;1.17;;
71104;SDS011;58760;48.716;8.962;2023-09-19T06:42:46;4.10;;;1.27;;
71104;SDS011;58760;48.716;8.962;2023-09-19T06:45:15;2.80;;;1.35;;
71104;SDS011;58760;48.716;8.962;2023-09-19T06:47:44;3.33;;;1.23;;
71104;SDS011;58760;48.716;8.962;2023-09-19T06:50:22;4.97;;;1.63;;
71104;SDS011;58760;48.716;8.962;2023-09-19T06:52:52;6.38;;;1.30;;
71104;SDS011;58760;48.716;8.962;2023-09-19T06:55:20;6.40;;;1.20;;
71104;SDS011;58760;48.716;8.962;2023-09-19T06:57:46;4.78;;;1.40;;
71104;SDS011;58760;48.716;8.962;2023-09-19T07:00:12;5.10;;;1.30;;
71104;SDS011;58760;48.716;8.962;2023-09-19T07:02:59;7.85;;;1.60;;
71104;SDS011;58760;48.716;8.962;2023-09-19T07:05:29;3.60;;;1.40;;
71104;SDS011;58760;48.716;8.962;2023-09-19T07:07:56;5.15;;;1.50;;
71104;SDS011;58760;48.716;8.962;2023-09-19T07:10:26;3.63;;;1.40;;
71104;SDS011;58760;48.716;8.962;2023-09-19T07:15:28;5.10;;;1.50;;
71104;SDS011;58760;48.716;8.962;2023-09-19T07:17:56;3.80;;;1.27;;
71104;SDS011;58760;48.716;8.962;2023-09-19T07:20:21;3.47;;;1.20;;
71104;SDS011;58760;48.716;8.962;2023-09-19T07:22:51;3.22;;;1.30;;
71104;SDS011;58760;48.716;8.962;2023-09-19T07:25:17;4.05;;;1.10;;
71104;SDS011;58760;48.716;8.962;2023-09-19T07:27:43;3.85;;;1.30;;
71104;SDS011;58760;48.716;8.962;2023-09-19T07:30:09;5.63;;;1.20;;
71104;SDS011;58760;48.716;8.962;2023-09-19T07:32:35;5.57;;;1.30;;
71104;SDS011;58760;48.716;8.962;2023-09-19T07:35:04;2.75;;;1.00;;
71104;SDS011;58760;48.716;8.962;2023-09-19T07:37:31;5.15;;;1.02;;
71104;SDS011;58760;48.716;8.962;2023-09-19T07:39:58;4.15;;;1.30;;
71104;SDS011;58760;48.716;8.962;2023-09-19T07:42:24;3.05;;;1.08;;
71104;SDS011;58760;48.716;8.962;2023-09-19T07:44:51;2.88;;;1.00;;
71104;SDS011;58760;48.716;8.962;2023-09-19T07:47:16;3.00;;;0.98;;
71104;SDS011;58760;48.716;8.962;2023-09-19T07:49:42;3.13;;;1.10;;
71104;SDS011;58760;48.716;8.962;2023-09-19T07:52:08;1.88;;;0.80;;
71104;SDS011;58760;48.716;8.962;2023-09-19T07:54:34;2.75;;;1.10;;
71104;SDS011;58760;48.716;8.962;2023-09-19T07:57:01;4.57;;;1.10;;
71104;SDS011;58760;48.716;8.962;2023-09-19T08:01:53;3.33;;;1.00;;
71104;SDS011;58760;48.716;8.962;2023-09-19T08:04:18;2.85;;;1.10;;
71104;SDS011;58760;48.716;8.962;2023-09-19T08:06:44;4.20;;;1.10;;
71104;SDS011;58760;48.716;8.962;2023-09-19T08:09:10;2.88;;;1.10;;
71104;SDS011;58760;48.716;8.962;2023-09-19T08:14:01;3.60;;;1.07;;
71104;SDS011;58760;48.716;8.962;2023-09-19T08:16:27;2.25;;;0.82;;
71104;SDS011;58760;48.716;8.962;2023-09-19T08:18:52;4.00;;;1.00;;
71104;SDS011;58760;48.716;8.962;2023-09-19T08:21:20;2.65;;;1.10;;
71104;SDS011;58760;48.716;8.962;2023-09-19T08:23:45;3.92;;;1.10;;
71104;SDS011;58760;48.716;8.962;2023-09-19T08:26:11;5.53;;;1.15;;
71104;SDS011;58760;48.716;8.962;2023-09-19T08:28:36;2.88;;;1.05;;
71104;SDS011;58760;48.716;8.962;2023-09-19T08:31:05;5.32;;;1.13;;
71104;SDS011;58760;48.716;8.962;2023-09-19T08:33:32;4.05;;;1.10;;
71104;SDS011;58760;48.716;8.962;2023-09-19T08:35:58;2.53;;;1.13;;
71104;SDS011;58760;48.716;8.962;2023-09-19T08:38:24;2.38;;;1.05;;
71104;SDS011;58760;48.716;8.962;2023-09-19T08:40:56;1.65;;;0.90;;
71104;SDS011;58760;48.716;8.962;2023-09-19T08:43:24;2.92;;;1.00;;
71104;SDS011;58760;48.716;8.962;2023-09-19T08:45:50;3.95;;;1.10;;
71104;SDS011;58760;48.716;8.962;2023-09-19T08:48:28;4.10;;;1.10;;
71104;SDS011;58760;48.716;8.962;2023-09-19T08:56:08;3.17;;;1.17;;
71104;SDS011;58760;48.716;8.962;2023-09-19T08:58:39;4.13;;;0.98;;
71104;SDS011;58760;48.716;8.962;2023-09-19T09:01:15;3.05;;;0.98;;
71104;SDS011;58760;48.716;8.962;2023-09-19T09:03:41;2.58;;;0.95;;
71104;SDS011;58760;48.716;8.962;2023-09-19T09:06:11;6.78;;;1.10;;
71104;SDS011;58760;48.716;8.962;2023-09-19T09:08:40;3.10;;;1.33;;
71104;SDS011;58760;48.716;8.962;2023-09-19T09:11:06;3.55;;;1.30;;
71104;SDS011;58760;48.716;8.962;2023-09-19T09:15:59;3.92;;;1.10;;
71104;SDS011;58760;48.716;8.962;2023-09-19T09:18:24;4.13;;;1.10;;
71104;SDS011;58760;48.716;8.962;2023-09-19T09:20:50;2.63;;;1.20;;
71104;SDS011;58760;48.716;8.962;2023-09-19T09:23:15;2.67;;;1.35;;
71104;SDS011;58760;48.716;8.962;2023-09-19T09:26:14;3.33;;;1.17;;
71104;SDS011;58760;48.716;8.962;2023-09-19T09:28:34;5.05;;;1.25;;
71104;SDS011;58760;48.716;8.962;2023-09-19T09:31:04;2.03;;;0.93;;
71104;SDS011;58760;48.716;8.962;2023-09-19T09:33:37;3.65;;;1.02;;
71104;SDS011;58760;48.716;8.962;2023-09-19T09:36:03;5.32;;;1.20;;
71104;SDS011;58760;48.716;8.962;2023-09-19T09:38:42;2.95;;;1.10;;
71104;SDS011;58760;48.716;8.962;2023-09-19T09:41:09;2.90;;;0.98;;
71104;SDS011;58760;48.716;8.962;2023-09-19T09:48:45;4.57;;;1.25;;
71104;SDS011;58760;48.716;8.962;2023-09-19T09:51:31;6.88;;;1.30;;
71104;SDS011;58760;48.716;8.962;2023-09-19T09:54:11;2.75;;;1.15;;
71104;SDS011;58760;48.716;8.962;2023-09-19T09:56:56;3.65;;;1.13;;
71104;SDS011;58760;48.716;8.962;2023-09-19T10:02:17;4.03;;;1.17;;
71104;SDS011;58760;48.716;8.962;2023-09-19T10:05:17;5.93;;;1.10;;
71104;SDS011;58760;48.716;8.962;2023-09-19T10:07:44;2.58;;;1.00;;
71104;SDS011;58760;48.716;8.962;2023-09-19T10:10:30;5.35;;;1.10;;
71104;SDS011;58760;48.716;8.962;2023-09-19T10:13:05;3.30;;;1.00;;
71104;SDS011;58760;48.716;8.962;2023-09-19T10:15:33;6.18;;;1.23;;
71104;SDS011;58760;48.716;8.962;2023-09-19T10:18:01;4.40;;;1.30;;
71104;SDS011;58760;48.716;8.962;2023-09-19T10:20:30;5.60;;;1.40;;
71104;SDS011;58760;48.716;8.962;2023-09-19T10:22:55;2.92;;;1.00;;
71104;SDS011;58760;48.716;8.962;2023-09-19T10:25:26;5.63;;;1.13;;
71104;SDS011;58760;48.716;8.962;2023-09-19T10:27:56;2.47;;;0.90;;
71104;SDS011;58760;48.716;8.962;2023-09-19T10:30:27;3.13;;;0.93;;
71104;SDS011;58760;48.716;8.962;2023-09-19T10:33:03;3.17;;;1.08;;
71104;SDS011;58760;48.716;8.962;2023-09-19T10:37:57;3.42;;;1.10;;
71104;SDS011;58760;48.716;8.962;2023-09-19T10:40:26;4.90;;;1.10;;
71104;SDS011;58760;48.716;8.962;2023-09-19T10:43:05;3.45;;;1.00;;
71104;SDS011;58760;48.716;8.962;2023-09-19T10:45:31;3.10;;;0.98;;
71104;SDS011;58760;48.716;8.962;2023-09-19T10:48:01;3.40;;;1.20;;
71104;SDS011;58760;48.716;8.962;2023-09-19T10:50:35;3.45;;;1.00;;
71104;SDS011;58760;48.716;8.962;2023-09-19T10:53:10;2.13;;;1.00;;
71104;SDS011;58760;48.716;8.962;2023-09-19T10:55:37;4.10;;;1.20;;
71104;SDS011;58760;48.716;8.962;2023-09-19T10:58:03;3.30;;;0.90;;
71104;SDS011;58760;48.716;8.962;2023-09-19T11:00:52;4.82;;;1.20;;
71104;SDS011;58760;48.716;8.962;2023-09-19T11:03:20;3.05;;;1.10;;
71104;SDS011;58760;48.716;8.962;2023-09-19T11:06:01;2.88;;;0.95;;
71104;SDS011;58760;48.716;8.962;2023-09-19T11:09:15;3.50;;;0.90;;
71104;SDS011;58760;48.716;8.962;2023-09-19T11:30:31;5.32;;;0.80;;
71104;SDS011;58760;48.716;8.962;2023-09-19T11:33:16;3.03;;;1.05;;
71104;SDS011;58760;48.716;8.962;2023-09-19T11:36:00;4.15;;;0.90;;
71104;SDS011;58760;48.716;8.962;2023-09-19T11:46:17;4.15;;;1.10;;
71104;SDS011;58760;48.716;8.962;2023-09-19T11:48:47;3.25;;;0.90;;
71104;SDS011;58760;48.716;8.962;2023-09-19T11:51:17;3.63;;;1.00;;
71104;SDS011;58760;48.716;8.962;2023-09-19T11:53:45;3.17;;;1.00;;
71104;SDS011;58760;48.716;8.962;2023-09-19T11:56:13;1.85;;;0.82;;
71104;SDS011;58760;48.716;8.962;2023-09-19T11:58:40;1.95;;;0.65;;
71104;SDS011;58760;48.716;8.962;2023-09-19T12:01:07;1.58;;;0.85;;
71104;SDS011;58760;48.716;8.962;2023-09-19T12:03:39;3.95;;;1.00;;
71104;SDS011;58760;48.716;8.962;2023-09-19T12:06:10;2.55;;;1.10;;
71104;SDS011;58760;48.716;8.962;2023-09-19T12:08:39;2.42;;;0.77;;
71104;SDS011;58760;48.716;8.962;2023-09-19T12:11:11;4.03;;;1.30;;
71104;SDS011;58760;48.716;8.962;2023-09-19T12:13:41;3.15;;;0.85;;
71104;SDS011;58760;48.716;8.962;2023-09-19T12:16:14;3.40;;;1.20;;
71104;SDS011;58760;48.716;8.962;2023-09-19T12:18:44;5.93;;;1.00;;
71104;SDS011;58760;48.716;8.962;2023-09-19T12:21:29;5.85;;;1.00;;
71104;SDS011;58760;48.716;8.962;2023-09-19T12:24:03;2.67;;;1.00;;
71104;SDS011;58760;48.716;8.962;2023-09-19T12:26:30;3.00;;;1.10;;
71104;SDS011;58760;48.716;8.962;2023-09-19T12:29:02;3.72;;;1.00;;
71104;SDS011;58760;48.716;8.962;2023-09-19T12:31:30;4.00;;;1.13;;
71104;SDS011;58760;48.716;8.962;2023-09-19T12:33:58;3.35;;;1.10;;
71104;SDS011;58760;48.716;8.962;2023-09-19T12:36:26;2.38;;;1.00;;
71104;SDS011;58760;48.716;8.962;2023-09-19T12:38:55;2.50;;;1.10;;
71104;SDS011;58760;48.716;8.962;2023-09-19T12:41:21;3.33;;;1.00;;
71104;SDS011;58760;48.716;8.962;2023-09-19T12:43:51;5.78;;;1.02;;
71104;SDS011;58760;48.716;8.962;2023-09-19T12:46:19;3.72;;;1.13;;
71104;SDS011;58760;48.716;8.962;2023-09-19T12:48:51;4.82;;;1.20;;
71104;SDS011;58760;48.716;8.962;2023-09-19T12:51:47;2.22;;;1.00;;
71104;SDS011;58760;48.716;8.962;2023-09-19T12:54:14;4.13;;;1.00;;
71104;SDS011;58760;48.716;8.962;2023-09-19T12:56:41;3.33;;;1.10;;
71104;SDS011;58760;48.716;8.962;2023-09-19T12:59:12;4.55;;;1.17;;
71104;SDS011;58760;48.716;8.962;2023-09-19T13:01:39;2.22;;;1.00;;
71104;SDS011;58760;48.716;8.962;2023-09-19T13:06:44;4.30;;;0.95;;
71104;SDS011;58760;48.716;8.962;2023-09-19T13:09:14;6.63;;;1.35;;
71104;SDS011;58760;48.716;8.962;2023-09-19T13:11:41;3.58;;;1.20;;
71104;SDS011;58760;48.716;8.962;2023-09-19T13:14:13;2.83;;;1.00;;
71104;SDS011;58760;48.716;8.962;2023-09-19T13:17:03;4.05;;;1.17;;
71104;SDS011;58760;48.716;8.962;2023-09-19T13:19:45;3.78;;;1.02;;
71104;SDS011;58760;48.716;8.962;2023-09-19T13:25:08;3.53;;;1.00;;
71104;SDS011;58760;48.716;8.962;2023-09-19T13:27:39;4.32;;;1.10;;
71104;SDS011;58760;48.716;8.962;2023-09-19T13:30:05;3.17;;;1.00;;
71104;SDS011;58760;48.716;8.962;2023-09-19T13:32:32;3.28;;;1.05;;
71104;SDS011;58760;48.716;8.962;2023-09-19T13:34:58;3.25;;;1.08;;
71104;SDS011;58760;48.716;8.962;2023-09-19T13:37:23;5.28;;;1.10;;
71104;SDS011;58760;48.716;8.962;2023-09-19T13:39:49;5.82;;;1.23;;
71104;SDS011;58760;48.716;8.962;2023-09-19T13:42:14;3.42;;;1.08;;
71104;SDS011;58760;48.716;8.962;2023-09-19T13:44:41;3.75;;;0.82;;
71104;SDS011;58760;48.716;8.962;2023-09-19T13:47:06;1.20;;;0.63;;
71104;SDS011;58760;48.716;8.962;2023-09-19T13:49:35;4.10;;;0.90;;
71104;SDS011;58760;48.716;8.962;2023-09-19T13:52:01;2.08;;;0.77;;
71104;SDS011;58760;48.716;8.962;2023-09-19T13:54:28;2.20;;;1.08;;
71104;SDS011;58760;48.716;8.962;2023-09-19T13:56:54;3.35;;;0.95;;
71104;SDS011;58760;48.716;8.962;2023-09-19T13:59:19;3.92;;;0.90;;
71104;SDS011;58760;48.716;8.962;2023-09-19T14:01:46;2.72;;;1.00;;
71104;SDS011;58760;48.716;8.962;2023-09-19T14:04:11;2.67;;;0.98;;
71104;SDS011;58760;48.716;8.962;2023-09-19T14:06:37;4.28;;;1.05;;
71104;SDS011;58760;48.716;8.962;2023-09-19T14:09:02;3.65;;;1.35;;
71104;SDS011;58760;48.716;8.962;2023-09-19T14:11:28;2.15;;;1.00;;
71104;SDS011;58760;48.716;8.962;2023-09-19T14:13:54;2.20;;;1.00;;
71104;SDS011;58760;48.716;8.962;2023-09-19T14:16:19;4.82;;;1.00;;
71104;SDS011;58760;48.716;8.962;2023-09-19T14:18:47;5.90;;;1.00;;
71104;SDS011;58760;48.716;8.962;2023-09-19T14:21:13;4.82;;;1.10;;
71104;SDS011;58760;48.716;8.962;2023-09-19T14:23:39;2.28;;;0.88;;
71104;SDS011;58760;48.716;8.962;2023-09-19T14:26:07;3.67;;;1.17;;
71104;SDS011;58760;48.716;8.962;2023-09-19T14:31:03;2.70;;;1.00;;
71104;SDS011;58760;48.716;8.962;2023-09-19T14:33:32;2.53;;;1.02;;
71104;SDS011;58760;48.716;8.962;2023-09-19T14:38:22;1.50;;;0.70;;
71104;SDS011;58760;48.716;8.962;2023-09-19T14:40:48;3.88;;;1.10;;
71104;SDS011;58760;48.716;8.962;2023-09-19T14:43:15;1.33;;;0.80;;
71104;SDS011;58760;48.716;8.962;2023-09-19T14:48:06;2.10;;;1.00;;
71104;SDS011;58760;48.716;8.962;2023-09-19T14:50:32;4.60;;;1.13;;
71104;SDS011;58760;48.716;8.962;2023-09-19T14:52:58;2.45;;;0.95;;
71104;SDS011;58760;48.716;8.962;2023-09-19T14:55:27;3.45;;;0.90;;
71104;SDS011;58760;48.716;8.962;2023-09-19T14:57:54;1.73;;;0.88;;
71104;SDS011;58760;48.716;8.962;2023-09-19T15:00:22;2.25;;;0.90;;
71104;SDS011;58760;48.716;8.962;2023-09-19T15:02:48;1.73;;;0.90;;
71104;SDS011;58760;48.716;8.962;2023-09-19T15:05:15;2.97;;;1.15;;
71104;SDS011;58760;48.716;8.962;2023-09-19T15:07:41;2.13;;;0.82;;
71104;SDS011;58760;48.716;8.962;2023-09-19T15:10:06;1.90;;;0.80;;
71104;SDS011;58760;48.716;8.962;2023-09-19T15:12:35;1.95;;;0.90;;
71104;SDS011;58760;48.716;8.962;2023-09-19T15:15:03;2.03;;;1.00;;
71104;SDS011;58760;48.716;8.962;2023-09-19T15:17:30;2.38;;;0.90;;
71104;SDS011;58760;48.716;8.962;2023-09-19T15:19:56;2.65;;;1.00;;
71104;SDS011;58760;48.716;8.962;2023-09-19T15:22:21;3.22;;;1.13;;
71104;SDS011;58760;48.716;8.962;2023-09-19T15:24:47;1.27;;;0.85;;
71104;SDS011;58760;48.716;8.962;2023-09-19T15:27:13;3.25;;;1.00;;
71104;SDS011;58760;48.716;8.962;2023-09-19T15:32:04;4.65;;;1.20;;
71104;SDS011;58760;48.716;8.962;2023-09-19T15:36:55;2.22;;;0.80;;
71104;SDS011;58760;48.716;8.962;2023-09-19T15:41:47;2.35;;;0.90;;
71104;SDS011;58760;48.716;8.962;2023-09-19T15:44:16;2.67;;;0.80;;
71104;SDS011;58760;48.716;8.962;2023-09-19T15:46:43;0.73;;;0.55;;
71104;SDS011;58760;48.716;8.962;2023-09-19T15:49:09;2.60;;;0.82;;
71104;SDS011;58760;48.716;8.962;2023-09-19T15:51:35;1.63;;;0.80;;
71104;SDS011;58760;48.716;8.962;2023-09-19T15:54:01;1.30;;;0.70;;
71104;SDS011;58760;48.716;8.962;2023-09-19T15:56:33;2.50;;;0.80;;
71104;SDS011;58760;48.716;8.962;2023-09-19T15:59:00;2.05;;;0.77;;
71104;SDS011;58760;48.716;8.962;2023-09-19T16:01:25;2.58;;;0.90;;
71104;SDS011;58760;48.716;8.962;2023-09-19T16:06:21;2.47;;;0.90;;
71104;SDS011;58760;48.716;8.962;2023-09-19T16:08:52;2.40;;;0.90;;
71104;SDS011;58760;48.716;8.962;2023-09-19T16:11:20;3.53;;;1.10;;
71104;SDS011;58760;48.716;8.962;2023-09-19T16:13:46;3.17;;;1.00;;
71104;SDS011;58760;48.716;8.962;2023-09-19T16:16:13;1.75;;;0.70;;
71104;SDS011;58760;48.716;8.962;2023-09-19T16:18:47;2.33;;;0.90;;
71104;SDS011;58760;48.716;8.962;2023-09-19T16:21:22;2.65;;;1.00;;
71104;SDS011;58760;48.716;8.962;2023-09-19T16:26:15;2.58;;;0.90;;
71104;SDS011;58760;48.716;8.962;2023-09-19T16:31:07;3.00;;;1.15;;